createdAt,value
2022-11-20T00:00:45.838Z,72.10
2022-11-20T00:01:48.620Z,72.28
2022-11-20T00:02:50.563Z,72.36
2022-11-20T00:03:54.679Z,72.36
2022-11-20T00:04:57.093Z,72.63
2022-11-20T00:06:04.690Z,72.42
2022-11-20T00:07:06.504Z,72.17
2022-11-20T00:08:08.397Z,72.32
2022-11-20T00:09:10.514Z,71.87
2022-11-20T00:10:13.375Z,71.61
2022-11-20T00:11:18.854Z,71.66
2022-11-20T00:12:20.585Z,71.78
2022-11-20T00:13:22.741Z,71.79
2022-11-20T00:14:24.517Z,71.66
2022-11-20T00:15:26.279Z,71.85
2022-11-20T00:16:31.332Z,72.29
2022-11-20T00:17:33.739Z,72.56
2022-11-20T00:18:37.161Z,72.67
2022-11-20T00:19:39.005Z,72.35
2022-11-20T00:20:41.069Z,72.02
2022-11-20T00:21:42.820Z,72.16
2022-11-20T00:22:44.532Z,72.12
2022-11-20T00:23:47.598Z,71.55
2022-11-20T00:24:49.877Z,71.51
2022-11-20T00:25:52.117Z,71.68
2022-11-20T00:26:53.880Z,72.45
2022-11-20T00:27:55.530Z,72.13
2022-11-20T00:29:00.536Z,72.31
2022-11-20T00:30:04.368Z,72.15
2022-11-20T00:31:09.973Z,71.85
2022-11-20T00:32:11.801Z,71.80
2022-11-20T00:33:13.710Z,71.98
2022-11-20T00:34:15.469Z,72.33
2022-11-20T00:35:17.284Z,72.33
2022-11-20T00:36:26.607Z,72.42
2022-11-20T00:37:28.864Z,72.41
2022-11-20T00:38:31.891Z,72.46
2022-11-20T00:39:33.736Z,72.74
2022-11-20T00:40:35.834Z,72.24
2022-11-20T00:41:37.911Z,72.11
2022-11-20T00:42:39.742Z,71.67
2022-11-20T00:43:41.884Z,71.69
2022-11-20T00:44:43.682Z,71.88
2022-11-20T00:45:45.432Z,71.59
2022-11-20T00:46:47.143Z,71.59
2022-11-20T00:47:49.394Z,71.35
2022-11-20T00:48:51.266Z,71.52
2022-11-20T00:49:53.396Z,71.66
2022-11-20T00:50:56.093Z,71.73
2022-11-20T00:51:57.791Z,71.59
2022-11-20T00:52:59.394Z,71.54
2022-11-20T00:54:01.588Z,71.88
2022-11-20T00:55:04.398Z,71.86
2022-11-20T00:56:11.346Z,71.78
2022-11-20T00:57:13.160Z,71.61
2022-11-20T00:58:15.012Z,71.45
2022-11-20T00:59:16.723Z,71.41
2022-11-20T01:00:19.341Z,70.29
2022-11-20T01:01:24.112Z,68.79
2022-11-20T01:02:26.040Z,68.28
2022-11-20T01:03:30.482Z,68.52
2022-11-20T01:04:32.460Z,70.24
2022-11-20T01:05:35.611Z,70.24
2022-11-20T01:06:38.968Z,70.79
2022-11-20T01:07:41.856Z,71.64
2022-11-20T01:08:44.939Z,72.58
2022-11-20T01:09:46.799Z,73.74
2022-11-20T01:10:48.683Z,73.98
2022-11-20T01:11:50.569Z,74.49
2022-11-20T01:12:52.422Z,74.13
2022-11-20T01:13:56.328Z,73.82
2022-11-20T01:14:58.302Z,74.01
2022-11-20T01:16:05.289Z,74.18
2022-11-20T01:17:07.143Z,74.42
2022-11-20T01:18:10.099Z,73.88
2022-11-20T01:19:17.946Z,73.97
2022-11-20T01:20:19.340Z,73.67
2022-11-20T01:21:24.098Z,73.78
2022-11-20T01:22:26.098Z,73.39
2022-11-20T01:23:34.512Z,73.12
2022-11-20T01:24:36.429Z,73.14
2022-11-20T01:25:38.279Z,72.46
2022-11-20T01:26:41.800Z,71.85
2022-11-20T01:27:43.663Z,71.60
2022-11-20T01:28:47.133Z,71.82
2022-11-20T01:29:49.925Z,72.13
2022-11-20T01:30:51.786Z,71.81
2022-11-20T01:31:53.866Z,71.53
2022-11-20T01:32:56.117Z,72.02
2022-11-20T01:34:01.205Z,71.71
2022-11-20T01:35:03.469Z,71.78
2022-11-20T01:36:06.974Z,71.08
2022-11-20T01:37:08.913Z,71.80
2022-11-20T01:38:11.768Z,73.25
2022-11-20T01:39:17.239Z,73.64
2022-11-20T01:40:19.256Z,73.01
2022-11-20T01:41:21.609Z,73.05
2022-11-20T01:42:23.267Z,73.09
2022-11-20T01:43:25.529Z,73.12
2022-11-20T01:44:49.318Z,73.15
2022-11-20T01:46:00.920Z,72.98
2022-11-20T01:47:05.421Z,72.90
2022-11-20T01:48:07.930Z,73.03
2022-11-20T01:49:30.657Z,73.49
2022-11-20T01:50:32.726Z,73.79
2022-11-20T01:51:41.094Z,72.48
2022-11-20T01:52:49.365Z,72.29
2022-11-20T01:53:54.573Z,71.45
2022-11-20T01:55:06.462Z,72.24
2022-11-20T01:56:12.270Z,71.79
2022-11-20T01:57:18.172Z,72.02
2022-11-20T01:58:23.766Z,72.67
2022-11-20T01:59:28.393Z,73.99
2022-11-20T02:00:31.518Z,73.54
2022-11-20T02:01:34.612Z,74.31
2022-11-20T02:02:39.545Z,73.91
2022-11-20T02:03:42.378Z,73.21
2022-11-20T02:04:45.839Z,72.44
2022-11-20T02:06:15.799Z,72.27
2022-11-20T02:07:19.101Z,73.37
2022-11-20T02:08:24.583Z,72.57
2022-11-20T02:09:27.509Z,72.68
2022-11-20T02:10:30.195Z,72.95
2022-11-20T02:11:32.364Z,72.79
2022-11-20T02:12:34.249Z,73.25
2022-11-20T02:13:36.373Z,74.10
2022-11-20T02:14:38.308Z,73.60
2022-11-20T02:15:41.201Z,73.65
2022-11-20T02:16:49.589Z,73.64
2022-11-20T02:17:51.829Z,73.44
2022-11-20T02:19:00.420Z,73.46
2022-11-20T02:20:03.455Z,74.08
2022-11-20T02:21:09.089Z,74.49
2022-11-20T02:22:20.699Z,75.05
2022-11-20T02:23:26.259Z,75.91
2022-11-20T02:24:28.609Z,75.38
2022-11-20T02:25:33.310Z,75.02
2022-11-20T02:26:38.891Z,75.46
2022-11-20T02:27:41.253Z,75.46
2022-11-20T02:28:43.330Z,75.62
2022-11-20T02:29:48.909Z,75.87
2022-11-20T02:30:50.860Z,76.50
2022-11-20T02:31:55.525Z,76.08
2022-11-20T02:32:58.919Z,75.68
2022-11-20T02:34:01.912Z,75.45
2022-11-20T02:35:22.126Z,76.54
2022-11-20T02:36:27.895Z,76.54
2022-11-20T02:37:33.330Z,77.03
2022-11-20T02:38:35.605Z,77.76
2022-11-20T02:39:37.600Z,77.98
2022-11-20T02:40:39.592Z,77.55
2022-11-20T02:41:41.520Z,77.88
2022-11-20T02:42:44.258Z,77.99
2022-11-20T02:43:46.083Z,77.32
2022-11-20T02:44:47.800Z,77.48
2022-11-20T02:45:50.272Z,76.72
2022-11-20T02:46:52.290Z,76.48
2022-11-20T02:47:54.413Z,76.50
2022-11-20T02:48:56.308Z,76.17
2022-11-20T02:49:58.773Z,76.75
2022-11-20T02:51:00.779Z,76.75
2022-11-20T02:52:02.645Z,77.30
2022-11-20T02:53:04.876Z,77.24
2022-11-20T02:54:06.540Z,76.49
2022-11-20T02:55:08.828Z,76.49
2022-11-20T02:56:13.309Z,76.44
2022-11-20T02:57:15.203Z,75.78
2022-11-20T02:58:16.978Z,76.10
2022-11-20T02:59:18.996Z,76.33
2022-11-20T03:00:21.246Z,76.70
2022-11-20T03:01:23.200Z,76.58
2022-11-20T03:02:25.241Z,76.16
2022-11-20T03:03:26.956Z,76.13
2022-11-20T03:04:28.810Z,76.06
2022-11-20T03:05:30.601Z,75.44
2022-11-20T03:06:33.094Z,75.28
2022-11-20T03:07:34.772Z,75.46
2022-11-20T03:08:36.944Z,75.75
2022-11-20T03:09:38.737Z,75.84
2022-11-20T03:10:40.589Z,76.18
2022-11-20T03:11:42.496Z,75.41
2022-11-20T03:12:44.540Z,76.06
2022-11-20T03:13:46.464Z,76.56
2022-11-20T03:14:52.841Z,76.52
2022-11-20T03:15:51.821Z,76.83
2022-11-20T03:16:53.537Z,76.90
2022-11-20T03:17:55.971Z,76.35
2022-11-20T03:18:57.979Z,75.69
2022-11-20T03:19:59.738Z,75.73
2022-11-20T03:21:01.692Z,75.20
2022-11-20T03:22:03.603Z,75.04
2022-11-20T03:23:05.377Z,75.21
2022-11-20T03:24:08.903Z,75.06
2022-11-20T03:25:10.641Z,75.01
2022-11-20T03:26:21.462Z,75.16
2022-11-20T03:27:23.296Z,74.92
2022-11-20T03:28:24.926Z,73.95
2022-11-20T03:29:26.947Z,73.61
2022-11-20T03:30:30.758Z,73.81
2022-11-20T03:31:36.875Z,73.54
2022-11-20T03:32:38.858Z,74.11
2022-11-20T03:33:42.644Z,74.80
2022-11-20T03:34:45.166Z,74.82
2022-11-20T03:35:47.152Z,74.87
2022-11-20T03:36:50.070Z,74.24
2022-11-20T03:37:51.811Z,74.24
2022-11-20T03:38:55.060Z,74.16
2022-11-20T03:39:57.243Z,74.10
2022-11-20T03:41:04.599Z,73.81
2022-11-20T03:42:06.427Z,73.59
2022-11-20T03:43:10.055Z,73.62
2022-11-20T03:44:12.716Z,73.60
2022-11-20T03:45:17.461Z,73.60
2022-11-20T03:46:20.558Z,73.49
2022-11-20T03:47:22.546Z,73.53
2022-11-20T03:48:25.660Z,73.32
2022-11-20T03:49:27.653Z,73.12
2022-11-20T03:50:29.720Z,73.40
2022-11-20T03:51:33.884Z,73.24
2022-11-20T03:52:35.814Z,73.34
2022-11-20T03:53:38.531Z,72.37
2022-11-20T03:54:40.203Z,72.77
2022-11-20T03:55:42.239Z,72.58
2022-11-20T03:56:44.027Z,72.14
2022-11-20T03:57:45.658Z,71.57
2022-11-20T03:58:47.364Z,71.56
2022-11-20T03:59:49.297Z,71.75
2022-11-20T04:00:51.372Z,71.83
2022-11-20T04:01:53.168Z,72.18
2022-11-20T04:02:59.843Z,72.97
2022-11-20T04:04:01.991Z,73.22
2022-11-20T04:05:04.595Z,72.93
2022-11-20T04:06:12.058Z,73.95
2022-11-20T04:07:13.838Z,73.78
2022-11-20T04:08:15.804Z,72.73
2022-11-20T04:09:17.416Z,72.52
2022-11-20T04:10:19.592Z,72.61
2022-11-20T04:11:24.465Z,72.81
2022-11-20T04:12:26.229Z,72.85
2022-11-20T04:13:28.389Z,72.83
2022-11-20T04:14:30.769Z,72.27
2022-11-20T04:15:38.122Z,72.10
2022-11-20T04:16:36.879Z,72.41
2022-11-20T04:17:38.726Z,72.65
2022-11-20T04:18:40.793Z,72.63
2022-11-20T04:19:42.703Z,72.75
2022-11-20T04:20:44.559Z,73.08
2022-11-20T04:21:46.873Z,72.69
2022-11-20T04:22:48.660Z,72.52
2022-11-20T04:23:51.919Z,72.88
2022-11-20T04:24:53.747Z,72.98
2022-11-20T04:25:57.687Z,72.66
2022-11-20T04:26:59.588Z,72.34
2022-11-20T04:28:01.453Z,72.62
2022-11-20T04:29:04.529Z,72.27
2022-11-20T04:30:07.757Z,72.27
2022-11-20T04:31:12.758Z,71.78
2022-11-20T04:32:14.655Z,72.69
2022-11-20T04:33:16.383Z,73.20
2022-11-20T04:34:18.156Z,72.87
2022-11-20T04:35:19.976Z,72.63
2022-11-20T04:36:24.732Z,72.48
2022-11-20T04:37:26.547Z,73.42
2022-11-20T04:38:28.399Z,72.68
2022-11-20T04:39:30.006Z,72.32
2022-11-20T04:40:31.938Z,72.24
2022-11-20T04:41:36.680Z,71.89
2022-11-20T04:42:38.468Z,71.66
2022-11-20T04:43:40.097Z,71.90
2022-11-20T04:44:41.837Z,72.09
2022-11-20T04:45:43.461Z,71.74
2022-11-20T04:46:45.197Z,71.65
2022-11-20T04:47:46.822Z,71.29
2022-11-20T04:48:48.473Z,71.82
2022-11-20T04:49:50.536Z,72.09
2022-11-20T04:50:53.108Z,72.63
2022-11-20T04:51:55.483Z,71.98
2022-11-20T04:52:57.306Z,72.26
2022-11-20T04:53:59.207Z,73.20
2022-11-20T04:55:00.953Z,73.09
2022-11-20T04:56:05.735Z,73.09
2022-11-20T04:57:12.898Z,72.51
2022-11-20T04:58:11.945Z,72.16
2022-11-20T04:59:14.085Z,72.09
2022-11-20T05:00:17.080Z,71.71
2022-11-20T05:01:23.484Z,71.92
2022-11-20T05:02:25.887Z,71.52
2022-11-20T05:03:27.934Z,71.66
2022-11-20T05:04:29.830Z,71.22
2022-11-20T05:05:32.054Z,71.05
2022-11-20T05:06:34.350Z,71.15
2022-11-20T05:07:36.260Z,71.28
2022-11-20T05:08:38.624Z,71.28
2022-11-20T05:09:40.625Z,71.34
2022-11-20T05:10:42.428Z,72.27
2022-11-20T05:11:46.225Z,72.26
2022-11-20T05:12:48.091Z,71.94
2022-11-20T05:13:51.680Z,71.35
2022-11-20T05:14:53.887Z,71.10
2022-11-20T05:15:55.863Z,71.12
2022-11-20T05:16:57.706Z,71.92
2022-11-20T05:17:59.332Z,71.92
2022-11-20T05:19:01.069Z,71.22
2022-11-20T05:20:03.360Z,71.34
2022-11-20T05:21:06.801Z,72.90
2022-11-20T05:22:09.098Z,71.76
2022-11-20T05:23:10.927Z,71.89
2022-11-20T05:24:12.728Z,72.06
2022-11-20T05:25:15.128Z,72.37
2022-11-20T05:26:21.417Z,72.90
2022-11-20T05:27:23.284Z,72.62
2022-11-20T05:28:25.910Z,73.27
2022-11-20T05:29:27.712Z,72.46
2022-11-20T05:30:29.626Z,72.33
2022-11-20T05:31:32.417Z,72.81
2022-11-20T05:32:34.698Z,74.44
2022-11-20T05:33:37.081Z,74.44
2022-11-20T05:34:39.280Z,73.76
2022-11-20T05:35:41.303Z,73.81
2022-11-20T05:36:43.178Z,74.96
2022-11-20T05:37:45.031Z,75.26
2022-11-20T05:38:50.641Z,74.19
2022-11-20T05:39:51.199Z,75.22
2022-11-20T05:40:53.027Z,75.43
2022-11-20T05:41:55.021Z,75.98
2022-11-20T05:42:56.846Z,75.07
2022-11-20T05:43:58.788Z,73.77
2022-11-20T05:45:02.614Z,73.40
2022-11-20T05:46:06.332Z,72.93
2022-11-20T05:47:08.289Z,72.31
2022-11-20T05:48:09.917Z,72.51
2022-11-20T05:49:13.446Z,72.08
2022-11-20T05:50:17.484Z,71.93
2022-11-20T05:51:19.880Z,72.27
2022-11-20T05:52:21.698Z,72.23
2022-11-20T05:53:25.515Z,72.35
2022-11-20T05:54:27.412Z,72.21
2022-11-20T05:55:30.108Z,72.16
2022-11-20T05:56:31.973Z,71.85
2022-11-20T05:57:33.807Z,71.37
2022-11-20T05:58:36.353Z,71.28
2022-11-20T05:59:39.355Z,72.08
2022-11-20T06:00:41.726Z,72.45
2022-11-20T06:01:45.670Z,73.11
2022-11-20T06:02:47.539Z,73.80
2022-11-20T06:03:50.715Z,74.37
2022-11-20T06:04:52.598Z,74.67
2022-11-20T06:05:54.342Z,75.62
2022-11-20T06:06:56.277Z,76.45
2022-11-20T06:07:58.028Z,77.24
2022-11-20T06:08:59.941Z,77.35
2022-11-20T06:10:01.982Z,77.25
2022-11-20T06:11:05.878Z,77.28
2022-11-20T06:12:08.294Z,77.42
2022-11-20T06:13:09.972Z,77.43
2022-11-20T06:14:11.915Z,77.94
2022-11-20T06:15:13.932Z,78.29
2022-11-20T06:16:20.331Z,78.71
2022-11-20T06:17:22.901Z,79.20
2022-11-20T06:18:29.399Z,78.47
2022-11-20T06:19:31.500Z,78.97
2022-11-20T06:20:37.864Z,78.52
2022-11-20T06:21:37.167Z,78.36
2022-11-20T06:22:38.911Z,77.98
2022-11-20T06:23:41.541Z,77.71
2022-11-20T06:24:43.483Z,79.01
2022-11-20T06:25:45.264Z,79.03
2022-11-20T06:26:47.092Z,79.14
2022-11-20T06:27:48.902Z,78.19
2022-11-20T06:28:52.161Z,77.58
2022-11-20T06:29:54.101Z,77.47
2022-11-20T06:30:56.534Z,76.29
2022-11-20T06:31:58.411Z,76.27
2022-11-20T06:33:00.569Z,76.84
2022-11-20T06:34:02.907Z,76.33
2022-11-20T06:35:06.584Z,75.85
2022-11-20T06:36:12.459Z,75.41
2022-11-20T06:37:14.713Z,75.15
2022-11-20T06:38:16.685Z,75.11
2022-11-20T06:39:18.683Z,74.99
2022-11-20T06:40:21.403Z,75.23
2022-11-20T06:41:23.346Z,74.70
2022-11-20T06:42:25.680Z,74.59
2022-11-20T06:43:29.579Z,73.82
2022-11-20T06:44:31.505Z,73.14
2022-11-20T06:45:33.604Z,73.17
2022-11-20T06:46:35.534Z,72.75
2022-11-20T06:47:37.285Z,72.61
2022-11-20T06:48:40.026Z,73.15
2022-11-20T06:49:42.111Z,73.99
2022-11-20T06:50:44.164Z,73.69
2022-11-20T06:51:45.912Z,74.11
2022-11-20T06:52:47.728Z,74.27
2022-11-20T06:53:49.986Z,73.75
2022-11-20T06:54:51.887Z,72.07
2022-11-20T06:55:57.106Z,72.36
2022-11-20T06:56:59.250Z,71.32
2022-11-20T06:58:01.527Z,72.05
2022-11-20T06:59:07.671Z,72.07
2022-11-20T07:00:13.272Z,73.74
2022-11-20T07:01:15.927Z,71.42
2022-11-20T07:02:17.841Z,71.14
2022-11-20T07:03:21.741Z,70.35
2022-11-20T07:04:23.692Z,70.89
2022-11-20T07:05:25.403Z,70.73
2022-11-20T07:06:29.403Z,69.46
2022-11-20T07:07:31.261Z,68.92
2022-11-20T07:08:34.159Z,69.74
2022-11-20T07:09:35.836Z,71.37
2022-11-20T07:10:38.215Z,71.96
2022-11-20T07:11:40.218Z,69.95
2022-11-20T07:12:41.842Z,70.06
2022-11-20T07:13:43.806Z,70.38
2022-11-20T07:14:45.696Z,71.89
2022-11-20T07:15:48.484Z,72.15
2022-11-20T07:16:50.538Z,73.16
2022-11-20T07:17:52.685Z,72.54
2022-11-20T07:18:54.809Z,72.89
2022-11-20T07:19:56.569Z,72.85
2022-11-20T07:21:09.780Z,73.61
2022-11-20T07:22:12.028Z,72.76
2022-11-20T07:23:14.933Z,70.95
2022-11-20T07:24:17.270Z,71.43
2022-11-20T07:25:19.716Z,72.56
2022-11-20T07:26:21.522Z,73.08
2022-11-20T07:27:23.137Z,71.08
2022-11-20T07:28:24.943Z,70.62
2022-11-20T07:29:26.793Z,69.73
2022-11-20T07:30:29.649Z,70.60
2022-11-20T07:31:31.697Z,72.05
2022-11-20T07:32:33.585Z,71.86
2022-11-20T07:33:35.543Z,71.80
2022-11-20T07:34:37.186Z,72.05
2022-11-20T07:35:39.138Z,72.38
2022-11-20T07:36:41.555Z,73.49
2022-11-20T07:37:43.448Z,73.40
2022-11-20T07:38:45.196Z,72.65
2022-11-20T07:39:47.456Z,72.65
2022-11-20T07:40:53.057Z,72.77
2022-11-20T07:41:55.855Z,73.26
2022-11-20T07:42:57.732Z,72.71
2022-11-20T07:44:00.728Z,70.03
2022-11-20T07:45:02.876Z,70.28
2022-11-20T07:46:05.175Z,70.40
2022-11-20T07:47:06.944Z,70.19
2022-11-20T07:48:08.683Z,70.50
2022-11-20T07:49:10.558Z,69.65
2022-11-20T07:50:14.049Z,70.53
2022-11-20T07:51:15.968Z,70.17
2022-11-20T07:52:17.888Z,70.09
2022-11-20T07:53:19.508Z,71.91
2022-11-20T07:54:22.316Z,72.30
2022-11-20T07:55:24.182Z,72.52
2022-11-20T07:56:25.948Z,71.89
2022-11-20T07:57:28.616Z,71.30
2022-11-20T07:58:32.167Z,70.94
2022-11-20T07:59:34.036Z,71.26
2022-11-20T08:00:36.013Z,71.43
2022-11-20T08:01:39.037Z,71.08
2022-11-20T08:02:41.775Z,70.76
2022-11-20T08:03:43.556Z,69.44
2022-11-20T08:04:45.291Z,68.62
2022-11-20T08:05:47.434Z,67.31
2022-11-20T08:06:50.653Z,67.23
2022-11-20T08:07:52.672Z,68.79
2022-11-20T08:08:54.366Z,68.78
2022-11-20T08:09:55.980Z,71.39
2022-11-20T08:10:58.850Z,71.66
2022-11-20T08:12:02.666Z,71.70
2022-11-20T08:13:04.811Z,71.85
2022-11-20T08:14:06.692Z,71.05
2022-11-20T08:15:13.061Z,72.98
2022-11-20T08:16:14.775Z,73.85
2022-11-20T08:17:17.128Z,73.97
2022-11-20T08:18:34.894Z,72.07
2022-11-20T08:19:23.718Z,73.23
2022-11-20T08:20:26.371Z,73.73
2022-11-20T08:21:28.153Z,74.78
2022-11-20T08:22:31.733Z,75.39
2022-11-20T08:23:33.865Z,74.71
2022-11-20T08:24:35.491Z,74.83
2022-11-20T08:25:39.597Z,74.77
2022-11-20T08:26:41.544Z,74.21
2022-11-20T08:27:43.326Z,72.44
2022-11-20T08:28:45.217Z,71.89
2022-11-20T08:29:48.163Z,70.51
2022-11-20T08:30:52.558Z,69.70
2022-11-20T08:31:54.402Z,68.86
2022-11-20T08:33:02.703Z,70.39
2022-11-20T08:34:09.164Z,70.19
2022-11-20T08:35:09.122Z,71.67
2022-11-20T08:36:11.989Z,72.79
2022-11-20T08:37:13.766Z,72.23
2022-11-20T08:38:15.420Z,72.36
2022-11-20T08:39:18.105Z,72.77
2022-11-20T08:40:20.014Z,72.47
2022-11-20T08:41:22.716Z,73.20
2022-11-20T08:42:24.464Z,73.20
2022-11-20T08:43:26.202Z,71.98
2022-11-20T08:44:28.400Z,70.56
2022-11-20T08:45:34.014Z,70.35
2022-11-20T08:46:39.327Z,69.97
2022-11-20T08:47:41.483Z,70.15
2022-11-20T08:48:43.981Z,70.83
2022-11-20T08:49:46.349Z,72.20
2022-11-20T08:50:48.277Z,71.92
2022-11-20T08:51:50.520Z,71.58
2022-11-20T08:52:52.206Z,70.44
2022-11-20T08:53:54.086Z,69.00
2022-11-20T08:54:56.266Z,69.13
2022-11-20T08:55:58.772Z,70.45
2022-11-20T08:57:01.737Z,69.78
2022-11-20T08:58:04.830Z,68.89
2022-11-20T09:00:13.485Z,68.66
2022-11-20T09:01:15.990Z,68.68
2022-11-20T09:02:18.461Z,69.89
2022-11-20T09:03:20.890Z,69.91
2022-11-20T09:04:22.734Z,71.65
2022-11-20T09:05:24.942Z,71.07
2022-11-20T09:06:26.947Z,71.20
2022-11-20T09:07:30.087Z,70.90
2022-11-20T09:08:32.917Z,70.35
2022-11-20T09:09:34.611Z,70.05
2022-11-20T09:10:37.127Z,70.58
2022-11-20T09:11:38.901Z,70.58
2022-11-20T09:12:40.564Z,71.06
2022-11-20T09:13:42.169Z,70.25
2022-11-20T09:14:43.823Z,70.36
2022-11-20T09:15:45.421Z,69.58
2022-11-20T09:16:47.258Z,68.99
2022-11-20T09:17:56.877Z,68.29
2022-11-20T09:19:20.707Z,67.70
2022-11-20T09:20:05.272Z,67.99
2022-11-20T09:21:10.835Z,68.39
2022-11-20T09:22:13.172Z,69.10
2022-11-20T09:23:15.791Z,69.51
2022-11-20T09:24:18.180Z,69.92
2022-11-20T09:25:20.014Z,70.44
2022-11-20T09:26:22.211Z,70.65
2022-11-20T09:27:23.930Z,70.65
2022-11-20T09:28:27.240Z,70.52
2022-11-20T09:29:29.356Z,70.43
2022-11-20T09:30:31.483Z,70.43
2022-11-20T09:31:33.281Z,70.30
2022-11-20T09:32:35.006Z,70.29
2022-11-20T09:33:36.845Z,70.22
2022-11-20T09:34:38.577Z,69.87
2022-11-20T09:35:41.402Z,69.52
2022-11-20T09:36:43.456Z,68.97
2022-11-20T09:37:45.619Z,68.50
2022-11-20T09:38:47.913Z,68.64
2022-11-20T09:39:51.131Z,68.48
2022-11-20T09:40:58.982Z,68.65
2022-11-20T09:42:10.804Z,68.20
2022-11-20T09:43:32.325Z,67.95
2022-11-20T09:44:56.688Z,68.78
2022-11-20T09:46:20.326Z,69.12
2022-11-20T09:47:59.752Z,69.50
2022-11-20T09:49:20.343Z,69.72
2022-11-20T09:50:29.133Z,70.84
2022-11-20T09:51:55.879Z,72.00
2022-11-20T09:53:16.650Z,72.13
2022-11-20T09:54:21.184Z,71.78
2022-11-20T09:55:23.606Z,72.13
2022-11-20T09:56:26.910Z,71.08
2022-11-20T09:57:38.167Z,71.49
2022-11-20T09:58:50.210Z,72.05
2022-11-20T09:59:58.962Z,70.95
2022-11-20T10:01:14.311Z,70.96
2022-11-20T10:02:26.520Z,70.56
2022-11-20T10:03:40.807Z,70.37
2022-11-20T10:04:47.356Z,70.28
2022-11-20T10:05:53.020Z,70.52
2022-11-20T10:07:30.388Z,69.07
2022-11-20T10:08:21.020Z,68.47
2022-11-20T10:09:35.628Z,67.50
2022-11-20T10:10:46.436Z,68.52
2022-11-20T10:12:02.032Z,69.97
2022-11-20T10:13:29.085Z,69.99
2022-11-20T10:14:37.290Z,69.72
2022-11-20T10:15:45.772Z,69.13
2022-11-20T10:17:08.395Z,69.33
2022-11-20T10:18:23.191Z,69.00
2022-11-20T10:19:32.808Z,68.75
2022-11-20T10:20:44.400Z,69.82
2022-11-20T10:22:02.528Z,70.91
2022-11-20T10:23:25.613Z,71.77
2022-11-20T10:24:54.218Z,70.88
2022-11-20T10:26:05.992Z,71.04
2022-11-20T10:27:17.274Z,72.55
2022-11-20T10:28:41.603Z,72.41
2022-11-20T10:29:47.507Z,71.97
2022-11-20T10:30:54.308Z,71.41
2022-11-20T10:31:59.877Z,72.31
2022-11-20T10:33:11.534Z,73.03
2022-11-20T10:34:22.985Z,72.34
2022-11-20T10:35:42.894Z,73.57
2022-11-20T10:36:48.570Z,74.96
2022-11-20T10:37:56.839Z,73.13
2022-11-20T10:39:08.038Z,71.51
2022-11-20T10:40:40.048Z,71.98
2022-11-20T10:41:44.064Z,71.84
2022-11-20T10:42:49.664Z,72.10
2022-11-20T10:44:07.491Z,72.43
2022-11-20T10:45:16.775Z,73.10
2022-11-20T10:46:24.141Z,73.17
2022-11-20T10:47:27.876Z,73.25
2022-11-20T10:48:31.949Z,73.26
2022-11-20T10:49:34.874Z,73.26
2022-11-20T10:50:40.496Z,72.89
2022-11-20T10:51:56.955Z,72.65
2022-11-20T10:53:20.703Z,72.88
2022-11-20T10:54:49.418Z,72.35
2022-11-20T10:56:00.932Z,71.45
2022-11-20T10:58:38.830Z,74.31
2022-11-20T11:00:02.881Z,75.43
2022-11-20T11:01:17.945Z,76.50
2022-11-20T11:02:23.172Z,77.20
2022-11-20T11:03:28.705Z,76.86
2022-11-20T11:04:47.312Z,77.17
2022-11-20T11:06:11.244Z,79.23
2022-11-20T11:07:16.938Z,80.76
2022-11-20T11:08:20.229Z,81.83
2022-11-20T11:09:25.792Z,82.23
2022-11-20T11:10:37.555Z,81.59
2022-11-20T11:11:39.587Z,82.18
2022-11-20T11:12:45.070Z,83.44
2022-11-20T11:13:46.899Z,82.92
2022-11-20T11:14:51.361Z,82.79
2022-11-20T11:15:54.803Z,80.92
2022-11-20T11:16:58.262Z,79.48
2022-11-20T11:18:00.201Z,79.48
2022-11-20T11:19:08.211Z,79.29
2022-11-20T11:20:21.898Z,79.88
2022-11-20T11:21:25.447Z,78.81
2022-11-20T11:22:34.257Z,77.97
2022-11-20T11:23:42.229Z,77.85
2022-11-20T11:24:52.769Z,77.84
2022-11-20T11:25:59.667Z,78.36
2022-11-20T11:27:04.656Z,78.50
2022-11-20T11:28:21.986Z,78.20
2022-11-20T11:29:24.481Z,77.61
2022-11-20T11:30:29.354Z,77.34
2022-11-20T11:31:34.222Z,77.53
2022-11-20T11:32:36.150Z,78.83
2022-11-20T11:33:38.106Z,78.99
2022-11-20T11:34:40.325Z,80.49
2022-11-20T11:36:59.547Z,77.73
2022-11-20T11:38:08.306Z,78.04
2022-11-20T11:39:17.450Z,78.38
2022-11-20T11:40:24.346Z,78.82
2022-11-20T11:41:30.467Z,79.46
2022-11-20T11:42:33.412Z,79.25
2022-11-20T11:43:38.473Z,79.40
2022-11-20T11:44:44.648Z,79.41
2022-11-20T11:45:56.455Z,78.60
2022-11-20T11:46:58.796Z,77.96
2022-11-20T11:48:04.127Z,79.91
2022-11-20T11:49:12.726Z,80.20
2022-11-20T11:50:20.201Z,80.63
2022-11-20T11:51:23.202Z,82.30
2022-11-20T11:52:26.711Z,81.75
2022-11-20T11:53:30.580Z,81.16
2022-11-20T11:54:46.112Z,80.77
2022-11-20T11:55:57.862Z,80.94
2022-11-20T11:57:04.626Z,80.41
2022-11-20T11:58:33.036Z,81.07
2022-11-20T12:00:04.552Z,81.07
2022-11-20T12:01:16.090Z,81.37
2022-11-20T12:02:40.224Z,81.52
2022-11-20T12:03:45.164Z,81.34
2022-11-20T12:04:53.424Z,82.06
2022-11-20T12:06:01.997Z,82.75
2022-11-20T12:07:50.588Z,83.16
2022-11-20T12:08:50.251Z,82.97
2022-11-20T12:09:55.590Z,83.45
2022-11-20T12:11:26.924Z,83.89
2022-11-20T12:12:33.067Z,83.95
2022-11-20T12:13:38.585Z,83.79
2022-11-20T12:14:44.289Z,83.94
2022-11-20T12:15:48.329Z,83.65
2022-11-20T12:18:21.622Z,83.91
2022-11-20T12:19:25.012Z,83.78
2022-11-20T12:20:31.937Z,83.78
2022-11-20T12:21:40.976Z,84.39
2022-11-20T12:22:59.805Z,84.50
2022-11-20T12:24:08.340Z,85.05
2022-11-20T12:25:14.186Z,85.32
2022-11-20T12:26:27.905Z,84.96
2022-11-20T12:27:46.397Z,86.38
2022-11-20T12:29:07.485Z,86.86
2022-11-20T12:30:13.153Z,87.02
2022-11-20T12:31:31.317Z,87.44
2022-11-20T12:32:39.631Z,87.56
2022-11-20T12:34:09.073Z,86.96
2022-11-20T12:35:48.751Z,87.46
2022-11-20T12:37:12.244Z,87.40
2022-11-20T12:38:48.328Z,87.37
2022-11-20T12:39:51.593Z,87.93
2022-11-20T12:40:57.296Z,88.18
2022-11-20T12:42:23.460Z,88.18
2022-11-20T12:43:29.178Z,87.89
2022-11-20T12:44:50.889Z,87.37
2022-11-20T12:46:02.655Z,87.49
2022-11-20T12:47:11.263Z,87.68
2022-11-20T12:48:46.048Z,87.77
2022-11-20T12:49:48.930Z,87.72
2022-11-20T12:51:16.354Z,87.49
2022-11-20T12:52:28.089Z,87.29
2022-11-20T12:54:00.637Z,87.26
2022-11-20T12:55:19.685Z,87.15
2022-11-20T12:56:35.495Z,87.24
2022-11-20T12:58:07.470Z,86.95
2022-11-20T12:59:19.613Z,87.10
2022-11-20T13:00:24.278Z,87.59
2022-11-20T13:01:48.331Z,87.69
2022-11-20T13:03:09.138Z,88.08
2022-11-20T13:04:39.563Z,88.97
2022-11-20T13:05:57.299Z,89.85
2022-11-20T13:07:05.401Z,89.97
2022-11-20T13:08:11.834Z,90.02
2022-11-20T13:09:18.455Z,90.54
2022-11-20T13:10:37.139Z,90.73
2022-11-20T13:11:58.720Z,90.97
2022-11-20T13:13:16.989Z,91.17
2022-11-20T13:14:22.905Z,90.74
2022-11-20T13:15:33.681Z,90.74
2022-11-20T13:16:54.554Z,90.36
2022-11-20T13:18:05.524Z,90.28
2022-11-20T13:19:13.730Z,90.90
2022-11-20T13:20:20.805Z,91.17
2022-11-20T13:21:26.758Z,91.36
2022-11-20T13:22:31.701Z,91.32
2022-11-20T13:23:33.571Z,90.93
2022-11-20T13:24:35.633Z,90.90
2022-11-20T13:25:40.621Z,90.78
2022-11-20T13:26:42.722Z,91.14
2022-11-20T13:27:49.508Z,91.07
2022-11-20T13:29:11.954Z,91.41
2022-11-20T13:30:19.349Z,91.66
2022-11-20T13:31:34.604Z,91.99
2022-11-20T13:32:36.436Z,91.79
2022-11-20T13:33:39.664Z,91.69
2022-11-20T13:34:54.549Z,91.89
2022-11-20T13:36:00.211Z,92.53
2022-11-20T13:37:02.252Z,92.76
2022-11-20T13:38:12.753Z,92.94
2022-11-20T13:39:18.245Z,93.14
2022-11-20T13:40:24.446Z,93.03
2022-11-20T13:41:30.460Z,92.96
2022-11-20T13:42:38.672Z,92.75
2022-11-20T13:43:42.912Z,92.59
2022-11-20T13:44:48.913Z,91.79
2022-11-20T13:46:00.698Z,91.74
2022-11-20T13:47:02.766Z,91.86
2022-11-20T13:48:08.562Z,91.73
2022-11-20T13:49:17.328Z,91.90
2022-11-20T13:50:25.191Z,92.09
2022-11-20T13:51:36.920Z,92.32
2022-11-20T13:52:51.829Z,92.76
2022-11-20T13:54:03.772Z,92.70
2022-11-20T13:55:34.593Z,93.34
2022-11-20T13:56:46.771Z,93.15
2022-11-20T13:58:01.157Z,93.30
2022-11-20T13:59:12.082Z,93.66
2022-11-20T14:00:15.155Z,93.93
2022-11-20T14:01:27.032Z,93.57
2022-11-20T14:02:31.757Z,94.09
2022-11-20T14:04:04.691Z,94.60
2022-11-20T14:04:42.591Z,94.65
2022-11-20T14:06:06.002Z,94.70
2022-11-20T14:07:11.084Z,94.87
2022-11-20T14:08:17.040Z,95.35